sensor_id;sensor_type;location;lat;lon;timestamp;P1;durP1;ratioP1;P2;durP2;ratioP2
76039;SDS011;64736;50.462;4.850;2023-06-26T00:02:16;8.00;;;5.82;;
76039;SDS011;64736;50.462;4.850;2023-06-26T00:04:43;8.07;;;5.82;;
76039;SDS011;64736;50.462;4.850;2023-06-26T00:07:10;7.78;;;5.22;;
76039;SDS011;64736;50.462;4.850;2023-06-26T00:09:36;8.93;;;5.80;;
76039;SDS011;64736;50.462;4.850;2023-06-26T00:12:02;7.18;;;5.60;;
76039;SDS011;64736;50.462;4.850;2023-06-26T00:14:27;7.75;;;5.32;;
76039;SDS011;64736;50.462;4.850;2023-06-26T00:16:53;8.13;;;5.30;;
76039;SDS011;64736;50.462;4.850;2023-06-26T00:19:19;7.70;;;5.65;;
76039;SDS011;64736;50.462;4.850;2023-06-26T00:21:45;8.60;;;5.95;;
76039;SDS011;64736;50.462;4.850;2023-06-26T00:24:12;10.73;;;6.30;;
76039;SDS011;64736;50.462;4.850;2023-06-26T00:26:38;8.68;;;5.35;;
76039;SDS011;64736;50.462;4.850;2023-06-26T00:29:04;7.93;;;5.03;;
76039;SDS011;64736;50.462;4.850;2023-06-26T00:31:30;8.80;;;5.85;;
76039;SDS011;64736;50.462;4.850;2023-06-26T00:33:56;8.65;;;5.55;;
76039;SDS011;64736;50.462;4.850;2023-06-26T00:36:22;8.95;;;5.43;;
76039;SDS011;64736;50.462;4.850;2023-06-26T00:38:51;7.88;;;4.72;;
76039;SDS011;64736;50.462;4.850;2023-06-26T00:41:19;6.85;;;4.22;;
76039;SDS011;64736;50.462;4.850;2023-06-26T00:43:45;6.90;;;5.03;;
76039;SDS011;64736;50.462;4.850;2023-06-26T00:46:12;7.55;;;4.20;;
76039;SDS011;64736;50.462;4.850;2023-06-26T00:48:39;9.32;;;4.55;;
76039;SDS011;64736;50.462;4.850;2023-06-26T00:51:10;7.43;;;4.10;;
76039;SDS011;64736;50.462;4.850;2023-06-26T00:53:36;8.85;;;4.65;;
76039;SDS011;64736;50.462;4.850;2023-06-26T00:56:02;7.88;;;4.70;;
76039;SDS011;64736;50.462;4.850;2023-06-26T00:58:28;7.68;;;4.30;;
76039;SDS011;64736;50.462;4.850;2023-06-26T01:00:54;5.63;;;3.60;;
76039;SDS011;64736;50.462;4.850;2023-06-26T01:03:21;8.02;;;4.15;;
76039;SDS011;64736;50.462;4.850;2023-06-26T01:05:48;6.75;;;3.78;;
76039;SDS011;64736;50.462;4.850;2023-06-26T01:08:16;7.10;;;4.05;;
76039;SDS011;64736;50.462;4.850;2023-06-26T01:10:42;7.95;;;3.67;;
76039;SDS011;64736;50.462;4.850;2023-06-26T01:13:08;7.47;;;3.65;;
76039;SDS011;64736;50.462;4.850;2023-06-26T01:15:34;6.28;;;3.58;;
76039;SDS011;64736;50.462;4.850;2023-06-26T01:18:01;6.60;;;3.90;;
76039;SDS011;64736;50.462;4.850;2023-06-26T01:20:30;6.03;;;3.72;;
76039;SDS011;64736;50.462;4.850;2023-06-26T01:25:45;8.65;;;3.90;;
76039;SDS011;64736;50.462;4.850;2023-06-26T01:28:20;6.70;;;3.78;;
76039;SDS011;64736;50.462;4.850;2023-06-26T01:30:49;5.95;;;3.95;;
76039;SDS011;64736;50.462;4.850;2023-06-26T01:33:16;6.53;;;4.05;;
76039;SDS011;64736;50.462;4.850;2023-06-26T01:35:42;8.85;;;3.70;;
76039;SDS011;64736;50.462;4.850;2023-06-26T01:38:14;6.57;;;4.18;;
76039;SDS011;64736;50.462;4.850;2023-06-26T01:40:41;7.05;;;4.47;;
76039;SDS011;64736;50.462;4.850;2023-06-26T01:43:11;8.13;;;4.45;;
76039;SDS011;64736;50.462;4.850;2023-06-26T01:45:59;8.15;;;4.15;;
76039;SDS011;64736;50.462;4.850;2023-06-26T01:48:34;6.85;;;4.32;;
76039;SDS011;64736;50.462;4.850;2023-06-26T01:51:10;8.02;;;4.22;;
76039;SDS011;64736;50.462;4.850;2023-06-26T01:53:41;10.75;;;4.40;;
76039;SDS011;64736;50.462;4.850;2023-06-26T01:56:14;7.43;;;4.22;;
76039;SDS011;64736;50.462;4.850;2023-06-26T01:58:45;7.15;;;4.13;;
76039;SDS011;64736;50.462;4.850;2023-06-26T02:01:12;6.87;;;3.57;;
76039;SDS011;64736;50.462;4.850;2023-06-26T02:03:38;9.00;;;3.63;;
76039;SDS011;64736;50.462;4.850;2023-06-26T02:06:04;7.13;;;3.58;;
76039;SDS011;64736;50.462;4.850;2023-06-26T02:08:30;7.60;;;3.88;;
76039;SDS011;64736;50.462;4.850;2023-06-26T02:10:55;6.80;;;3.50;;
76039;SDS011;64736;50.462;4.850;2023-06-26T02:13:21;7.38;;;3.83;;
76039;SDS011;64736;50.462;4.850;2023-06-26T02:15:47;6.38;;;3.38;;
76039;SDS011;64736;50.462;4.850;2023-06-26T02:18:13;8.35;;;3.65;;
76039;SDS011;64736;50.462;4.850;2023-06-26T02:20:38;7.25;;;3.00;;
76039;SDS011;64736;50.462;4.850;2023-06-26T02:23:05;7.25;;;2.95;;
76039;SDS011;64736;50.462;4.850;2023-06-26T02:25:30;6.50;;;3.00;;
76039;SDS011;64736;50.462;4.850;2023-06-26T02:27:56;7.43;;;3.13;;
76039;SDS011;64736;50.462;4.850;2023-06-26T02:30:22;5.75;;;2.92;;
76039;SDS011;64736;50.462;4.850;2023-06-26T02:32:48;6.65;;;3.42;;
76039;SDS011;64736;50.462;4.850;2023-06-26T02:35:13;7.25;;;3.58;;
76039;SDS011;64736;50.462;4.850;2023-06-26T02:37:39;7.15;;;3.50;;
76039;SDS011;64736;50.462;4.850;2023-06-26T02:40:05;8.27;;;3.40;;
76039;SDS011;64736;50.462;4.850;2023-06-26T02:42:33;7.18;;;3.60;;
76039;SDS011;64736;50.462;4.850;2023-06-26T02:45:00;8.15;;;4.30;;
76039;SDS011;64736;50.462;4.850;2023-06-26T02:47:25;6.20;;;3.53;;
76039;SDS011;64736;50.462;4.850;2023-06-26T02:49:51;8.10;;;4.55;;
76039;SDS011;64736;50.462;4.850;2023-06-26T02:52:17;6.88;;;3.30;;
76039;SDS011;64736;50.462;4.850;2023-06-26T02:54:44;6.65;;;3.30;;
76039;SDS011;64736;50.462;4.850;2023-06-26T02:57:10;7.30;;;3.78;;
76039;SDS011;64736;50.462;4.850;2023-06-26T02:59:35;8.25;;;3.47;;
76039;SDS011;64736;50.462;4.850;2023-06-26T03:02:01;10.10;;;5.03;;
76039;SDS011;64736;50.462;4.850;2023-06-26T03:04:27;7.38;;;4.05;;
76039;SDS011;64736;50.462;4.850;2023-06-26T03:06:52;7.00;;;4.15;;
76039;SDS011;64736;50.462;4.850;2023-06-26T03:09:18;6.28;;;3.28;;
76039;SDS011;64736;50.462;4.850;2023-06-26T03:11:47;7.50;;;3.47;;
76039;SDS011;64736;50.462;4.850;2023-06-26T03:14:13;7.28;;;4.13;;
76039;SDS011;64736;50.462;4.850;2023-06-26T03:16:39;7.22;;;3.38;;
76039;SDS011;64736;50.462;4.850;2023-06-26T03:19:05;7.53;;;3.67;;
76039;SDS011;64736;50.462;4.850;2023-06-26T03:21:32;7.80;;;3.83;;
76039;SDS011;64736;50.462;4.850;2023-06-26T03:23:58;7.70;;;3.90;;
76039;SDS011;64736;50.462;4.850;2023-06-26T03:26:23;7.28;;;3.70;;
76039;SDS011;64736;50.462;4.850;2023-06-26T03:28:53;8.40;;;3.30;;
76039;SDS011;64736;50.462;4.850;2023-06-26T03:31:19;7.75;;;4.03;;
76039;SDS011;64736;50.462;4.850;2023-06-26T03:33:45;8.98;;;4.18;;
76039;SDS011;64736;50.462;4.850;2023-06-26T03:36:11;7.30;;;3.60;;
76039;SDS011;64736;50.462;4.850;2023-06-26T03:38:37;7.75;;;3.67;;
76039;SDS011;64736;50.462;4.850;2023-06-26T03:41:03;7.25;;;3.33;;
76039;SDS011;64736;50.462;4.850;2023-06-26T03:43:28;7.20;;;3.47;;
76039;SDS011;64736;50.462;4.850;2023-06-26T03:45:54;7.68;;;3.80;;
76039;SDS011;64736;50.462;4.850;2023-06-26T03:48:20;7.45;;;3.53;;
76039;SDS011;64736;50.462;4.850;2023-06-26T03:50:45;8.27;;;3.38;;
76039;SDS011;64736;50.462;4.850;2023-06-26T03:53:11;6.63;;;3.30;;
76039;SDS011;64736;50.462;4.850;2023-06-26T03:55:37;6.78;;;3.70;;
76039;SDS011;64736;50.462;4.850;2023-06-26T03:58:03;7.30;;;3.47;;
76039;SDS011;64736;50.462;4.850;2023-06-26T04:00:30;7.72;;;3.45;;
76039;SDS011;64736;50.462;4.850;2023-06-26T04:02:56;7.90;;;3.60;;
76039;SDS011;64736;50.462;4.850;2023-06-26T04:05:22;8.00;;;3.40;;
76039;SDS011;64736;50.462;4.850;2023-06-26T04:07:51;7.63;;;3.92;;
76039;SDS011;64736;50.462;4.850;2023-06-26T04:10:18;7.32;;;3.75;;
76039;SDS011;64736;50.462;4.850;2023-06-26T04:12:44;9.23;;;3.42;;
76039;SDS011;64736;50.462;4.850;2023-06-26T04:15:10;8.80;;;3.45;;
76039;SDS011;64736;50.462;4.850;2023-06-26T04:17:37;9.48;;;4.55;;
76039;SDS011;64736;50.462;4.850;2023-06-26T04:20:03;9.90;;;4.13;;
76039;SDS011;64736;50.462;4.850;2023-06-26T04:22:33;7.90;;;4.07;;
76039;SDS011;64736;50.462;4.850;2023-06-26T04:25:01;9.68;;;4.07;;
76039;SDS011;64736;50.462;4.850;2023-06-26T04:27:29;10.05;;;3.72;;
76039;SDS011;64736;50.462;4.850;2023-06-26T04:29:55;10.77;;;4.30;;
76039;SDS011;64736;50.462;4.850;2023-06-26T04:32:21;8.23;;;4.50;;
76039;SDS011;64736;50.462;4.850;2023-06-26T04:34:47;8.82;;;4.03;;
76039;SDS011;64736;50.462;4.850;2023-06-26T04:37:13;10.07;;;4.28;;
76039;SDS011;64736;50.462;4.850;2023-06-26T04:42:08;7.60;;;3.63;;
76039;SDS011;64736;50.462;4.850;2023-06-26T04:44:35;9.10;;;4.03;;
76039;SDS011;64736;50.462;4.850;2023-06-26T04:47:03;12.57;;;4.38;;
76039;SDS011;64736;50.462;4.850;2023-06-26T04:49:29;11.02;;;4.28;;
76039;SDS011;64736;50.462;4.850;2023-06-26T04:51:55;9.00;;;3.80;;
76039;SDS011;64736;50.462;4.850;2023-06-26T04:54:21;9.07;;;3.60;;
76039;SDS011;64736;50.462;4.850;2023-06-26T04:56:48;8.98;;;4.18;;
76039;SDS011;64736;50.462;4.850;2023-06-26T04:59:14;9.70;;;3.72;;
76039;SDS011;64736;50.462;4.850;2023-06-26T05:01:40;9.73;;;3.75;;
76039;SDS011;64736;50.462;4.850;2023-06-26T05:04:06;8.10;;;3.72;;
76039;SDS011;64736;50.462;4.850;2023-06-26T05:06:32;11.38;;;4.10;;
76039;SDS011;64736;50.462;4.850;2023-06-26T05:08:58;9.88;;;3.75;;
76039;SDS011;64736;50.462;4.850;2023-06-26T05:11:24;8.32;;;3.80;;
76039;SDS011;64736;50.462;4.850;2023-06-26T05:13:51;10.30;;;3.42;;
76039;SDS011;64736;50.462;4.850;2023-06-26T05:16:17;10.95;;;4.07;;
76039;SDS011;64736;50.462;4.850;2023-06-26T05:18:42;9.90;;;3.50;;
76039;SDS011;64736;50.462;4.850;2023-06-26T05:21:08;9.88;;;3.35;;
76039;SDS011;64736;50.462;4.850;2023-06-26T05:23:34;14.20;;;4.70;;
76039;SDS011;64736;50.462;4.850;2023-06-26T05:26:03;7.85;;;3.67;;
76039;SDS011;64736;50.462;4.850;2023-06-26T05:28:29;10.93;;;3.13;;
76039;SDS011;64736;50.462;4.850;2023-06-26T05:30:56;9.35;;;3.72;;
76039;SDS011;64736;50.462;4.850;2023-06-26T05:33:24;9.20;;;3.45;;
76039;SDS011;64736;50.462;4.850;2023-06-26T05:35:54;8.75;;;3.45;;
76039;SDS011;64736;50.462;4.850;2023-06-26T05:38:20;7.18;;;3.50;;
76039;SDS011;64736;50.462;4.850;2023-06-26T05:40:46;10.45;;;3.95;;
76039;SDS011;64736;50.462;4.850;2023-06-26T05:43:13;9.57;;;3.08;;
76039;SDS011;64736;50.462;4.850;2023-06-26T05:45:39;7.35;;;3.05;;
76039;SDS011;64736;50.462;4.850;2023-06-26T05:48:05;8.07;;;3.38;;
76039;SDS011;64736;50.462;4.850;2023-06-26T05:50:31;8.82;;;3.20;;
76039;SDS011;64736;50.462;4.850;2023-06-26T05:52:57;7.95;;;3.10;;
76039;SDS011;64736;50.462;4.850;2023-06-26T05:55:23;11.65;;;3.28;;
76039;SDS011;64736;50.462;4.850;2023-06-26T05:57:49;8.57;;;3.25;;
76039;SDS011;64736;50.462;4.850;2023-06-26T06:00:16;8.75;;;3.10;;
76039;SDS011;64736;50.462;4.850;2023-06-26T06:02:42;8.25;;;3.20;;
76039;SDS011;64736;50.462;4.850;2023-06-26T06:05:08;10.00;;;3.08;;
76039;SDS011;64736;50.462;4.850;2023-06-26T06:07:35;7.47;;;3.33;;
76039;SDS011;64736;50.462;4.850;2023-06-26T06:10:01;10.75;;;3.88;;
76039;SDS011;64736;50.462;4.850;2023-06-26T06:12:28;7.72;;;3.15;;
76039;SDS011;64736;50.462;4.850;2023-06-26T06:14:55;10.75;;;3.33;;
76039;SDS011;64736;50.462;4.850;2023-06-26T06:17:21;11.25;;;2.75;;
76039;SDS011;64736;50.462;4.850;2023-06-26T06:19:47;7.55;;;3.00;;
76039;SDS011;64736;50.462;4.850;2023-06-26T06:22:13;7.07;;;2.88;;
76039;SDS011;64736;50.462;4.850;2023-06-26T06:24:39;7.50;;;2.63;;
76039;SDS011;64736;50.462;4.850;2023-06-26T06:27:05;8.05;;;2.85;;
76039;SDS011;64736;50.462;4.850;2023-06-26T06:29:30;6.47;;;2.72;;
76039;SDS011;64736;50.462;4.850;2023-06-26T06:31:56;8.23;;;2.78;;
76039;SDS011;64736;50.462;4.850;2023-06-26T06:34:22;9.43;;;3.38;;
76039;SDS011;64736;50.462;4.850;2023-06-26T06:36:48;9.05;;;2.97;;
76039;SDS011;64736;50.462;4.850;2023-06-26T06:39:15;7.38;;;2.40;;
76039;SDS011;64736;50.462;4.850;2023-06-26T06:41:41;8.38;;;3.15;;
76039;SDS011;64736;50.462;4.850;2023-06-26T06:44:07;9.82;;;3.47;;
76039;SDS011;64736;50.462;4.850;2023-06-26T06:46:33;7.85;;;2.65;;
76039;SDS011;64736;50.462;4.850;2023-06-26T06:48:58;7.68;;;2.58;;
76039;SDS011;64736;50.462;4.850;2023-06-26T06:51:25;7.70;;;2.35;;
76039;SDS011;64736;50.462;4.850;2023-06-26T06:53:51;6.90;;;2.53;;
76039;SDS011;64736;50.462;4.850;2023-06-26T06:56:17;8.52;;;2.75;;
76039;SDS011;64736;50.462;4.850;2023-06-26T06:58:43;9.25;;;2.65;;
76039;SDS011;64736;50.462;4.850;2023-06-26T07:01:12;10.43;;;2.65;;
76039;SDS011;64736;50.462;4.850;2023-06-26T07:03:38;5.35;;;2.17;;
76039;SDS011;64736;50.462;4.850;2023-06-26T07:06:05;10.13;;;5.00;;
76039;SDS011;64736;50.462;4.850;2023-06-26T07:08:30;8.13;;;2.80;;
76039;SDS011;64736;50.462;4.850;2023-06-26T07:10:56;8.15;;;3.25;;
76039;SDS011;64736;50.462;4.850;2023-06-26T07:13:22;5.93;;;2.53;;
76039;SDS011;64736;50.462;4.850;2023-06-26T07:15:49;7.22;;;2.17;;
76039;SDS011;64736;50.462;4.850;2023-06-26T07:18:14;6.72;;;2.50;;
76039;SDS011;64736;50.462;4.850;2023-06-26T07:20:41;5.53;;;1.85;;
76039;SDS011;64736;50.462;4.850;2023-06-26T07:23:07;6.45;;;2.10;;
76039;SDS011;64736;50.462;4.850;2023-06-26T07:25:33;6.15;;;2.05;;
76039;SDS011;64736;50.462;4.850;2023-06-26T07:27:59;6.80;;;2.20;;
76039;SDS011;64736;50.462;4.850;2023-06-26T07:30:25;6.03;;;2.08;;
76039;SDS011;64736;50.462;4.850;2023-06-26T07:32:51;7.07;;;3.03;;
76039;SDS011;64736;50.462;4.850;2023-06-26T07:35:17;6.85;;;2.50;;
76039;SDS011;64736;50.462;4.850;2023-06-26T07:37:43;6.22;;;2.30;;
76039;SDS011;64736;50.462;4.850;2023-06-26T07:40:09;6.15;;;1.90;;
76039;SDS011;64736;50.462;4.850;2023-06-26T07:42:35;7.72;;;2.25;;
76039;SDS011;64736;50.462;4.850;2023-06-26T07:45:01;7.93;;;2.33;;
76039;SDS011;64736;50.462;4.850;2023-06-26T07:47:26;6.90;;;2.10;;
76039;SDS011;64736;50.462;4.850;2023-06-26T07:49:52;6.47;;;2.60;;
76039;SDS011;64736;50.462;4.850;2023-06-26T07:52:18;7.03;;;2.22;;
76039;SDS011;64736;50.462;4.850;2023-06-26T07:54:45;7.63;;;2.30;;
76039;SDS011;64736;50.462;4.850;2023-06-26T07:57:11;4.72;;;2.00;;
76039;SDS011;64736;50.462;4.850;2023-06-26T07:59:38;5.38;;;2.00;;
76039;SDS011;64736;50.462;4.850;2023-06-26T08:02:04;4.80;;;1.70;;
76039;SDS011;64736;50.462;4.850;2023-06-26T08:04:30;7.75;;;1.80;;
76039;SDS011;64736;50.462;4.850;2023-06-26T08:06:57;6.90;;;1.92;;
76039;SDS011;64736;50.462;4.850;2023-06-26T08:09:25;6.60;;;2.05;;
76039;SDS011;64736;50.462;4.850;2023-06-26T08:11:52;9.23;;;2.50;;
76039;SDS011;64736;50.462;4.850;2023-06-26T08:14:18;4.63;;;1.90;;
76039;SDS011;64736;50.462;4.850;2023-06-26T08:16:44;5.68;;;1.90;;
76039;SDS011;64736;50.462;4.850;2023-06-26T08:19:15;5.10;;;1.63;;
76039;SDS011;64736;50.462;4.850;2023-06-26T08:21:42;5.90;;;3.08;;
76039;SDS011;64736;50.462;4.850;2023-06-26T08:24:08;6.88;;;1.85;;
76039;SDS011;64736;50.462;4.850;2023-06-26T08:26:34;6.53;;;2.00;;
76039;SDS011;64736;50.462;4.850;2023-06-26T08:29:01;5.15;;;1.60;;
76039;SDS011;64736;50.462;4.850;2023-06-26T08:31:33;5.43;;;1.70;;
76039;SDS011;64736;50.462;4.850;2023-06-26T08:34:00;5.75;;;2.72;;
76039;SDS011;64736;50.462;4.850;2023-06-26T08:36:26;5.90;;;2.30;;
76039;SDS011;64736;50.462;4.850;2023-06-26T08:38:52;4.13;;;1.70;;
76039;SDS011;64736;50.462;4.850;2023-06-26T08:41:18;7.15;;;2.10;;
76039;SDS011;64736;50.462;4.850;2023-06-26T08:43:44;5.45;;;1.60;;
76039;SDS011;64736;50.462;4.850;2023-06-26T08:46:09;5.30;;;1.88;;
76039;SDS011;64736;50.462;4.850;2023-06-26T08:48:35;5.55;;;1.73;;
76039;SDS011;64736;50.462;4.850;2023-06-26T08:51:05;4.60;;;1.63;;
76039;SDS011;64736;50.462;4.850;2023-06-26T08:56:17;3.75;;;1.52;;
76039;SDS011;64736;50.462;4.850;2023-06-26T08:58:47;4.32;;;1.50;;
76039;SDS011;64736;50.462;4.850;2023-06-26T09:01:13;5.32;;;1.67;;
76039;SDS011;64736;50.462;4.850;2023-06-26T09:03:39;5.15;;;1.65;;
76039;SDS011;64736;50.462;4.850;2023-06-26T09:06:06;4.50;;;1.40;;
76039;SDS011;64736;50.462;4.850;2023-06-26T09:08:32;3.45;;;1.20;;
76039;SDS011;64736;50.462;4.850;2023-06-26T09:10:58;3.97;;;1.20;;
76039;SDS011;64736;50.462;4.850;2023-06-26T09:13:24;6.30;;;1.83;;
76039;SDS011;64736;50.462;4.850;2023-06-26T09:15:52;6.22;;;1.73;;
76039;SDS011;64736;50.462;4.850;2023-06-26T09:18:20;4.40;;;1.58;;
76039;SDS011;64736;50.462;4.850;2023-06-26T09:20:46;5.30;;;1.58;;
76039;SDS011;64736;50.462;4.850;2023-06-26T09:23:13;5.28;;;1.60;;
76039;SDS011;64736;50.462;4.850;2023-06-26T09:25:39;4.65;;;1.50;;
76039;SDS011;64736;50.462;4.850;2023-06-26T09:28:05;5.88;;;1.90;;
76039;SDS011;64736;50.462;4.850;2023-06-26T09:30:32;6.28;;;1.80;;
76039;SDS011;64736;50.462;4.850;2023-06-26T09:33:12;5.22;;;1.55;;
76039;SDS011;64736;50.462;4.850;2023-06-26T09:35:45;4.55;;;1.27;;
76039;SDS011;64736;50.462;4.850;2023-06-26T09:38:12;4.43;;;1.63;;
76039;SDS011;64736;50.462;4.850;2023-06-26T09:40:39;5.50;;;1.38;;
76039;SDS011;64736;50.462;4.850;2023-06-26T09:43:05;3.30;;;1.35;;
76039;SDS011;64736;50.462;4.850;2023-06-26T09:45:33;5.57;;;1.50;;
76039;SDS011;64736;50.462;4.850;2023-06-26T09:48:05;4.57;;;1.50;;
76039;SDS011;64736;50.462;4.850;2023-06-26T09:50:33;5.72;;;1.40;;
76039;SDS011;64736;50.462;4.850;2023-06-26T09:53:12;4.50;;;1.63;;
76039;SDS011;64736;50.462;4.850;2023-06-26T09:58:06;4.07;;;1.27;;
76039;SDS011;64736;50.462;4.850;2023-06-26T10:00:32;4.10;;;1.23;;
76039;SDS011;64736;50.462;4.850;2023-06-26T10:03:01;4.72;;;1.50;;
76039;SDS011;64736;50.462;4.850;2023-06-26T10:05:26;5.28;;;1.65;;
76039;SDS011;64736;50.462;4.850;2023-06-26T10:07:53;5.15;;;1.60;;
76039;SDS011;64736;50.462;4.850;2023-06-26T10:10:20;4.40;;;1.50;;
76039;SDS011;64736;50.462;4.850;2023-06-26T10:12:48;4.55;;;1.67;;
76039;SDS011;64736;50.462;4.850;2023-06-26T10:15:16;4.05;;;1.40;;
76039;SDS011;64736;50.462;4.850;2023-06-26T10:17:43;4.35;;;1.80;;
76039;SDS011;64736;50.462;4.850;2023-06-26T10:20:11;4.65;;;1.50;;
76039;SDS011;64736;50.462;4.850;2023-06-26T10:22:41;4.37;;;1.70;;
76039;SDS011;64736;50.462;4.850;2023-06-26T10:25:10;5.88;;;1.58;;
76039;SDS011;64736;50.462;4.850;2023-06-26T10:30:09;4.78;;;1.75;;
76039;SDS011;64736;50.462;4.850;2023-06-26T10:32:39;4.65;;;1.38;;
76039;SDS011;64736;50.462;4.850;2023-06-26T10:35:06;7.30;;;1.58;;
76039;SDS011;64736;50.462;4.850;2023-06-26T10:37:48;4.57;;;1.33;;
76039;SDS011;64736;50.462;4.850;2023-06-26T10:40:22;4.13;;;1.42;;
76039;SDS011;64736;50.462;4.850;2023-06-26T10:42:51;4.30;;;1.20;;
76039;SDS011;64736;50.462;4.850;2023-06-26T10:45:34;5.72;;;1.85;;
76039;SDS011;64736;50.462;4.850;2023-06-26T10:48:02;4.97;;;1.67;;
76039;SDS011;64736;50.462;4.850;2023-06-26T10:50:30;4.18;;;1.50;;
76039;SDS011;64736;50.462;4.850;2023-06-26T10:53:09;4.80;;;1.55;;
76039;SDS011;64736;50.462;4.850;2023-06-26T10:55:54;5.03;;;1.58;;
76039;SDS011;64736;50.462;4.850;2023-06-26T10:58:30;6.20;;;1.80;;
76039;SDS011;64736;50.462;4.850;2023-06-26T11:01:17;4.53;;;1.85;;
76039;SDS011;64736;50.462;4.850;2023-06-26T11:08:59;6.57;;;1.70;;
76039;SDS011;64736;50.462;4.850;2023-06-26T11:14:16;3.85;;;1.52;;
76039;SDS011;64736;50.462;4.850;2023-06-26T11:16:43;5.47;;;1.58;;
76039;SDS011;64736;50.462;4.850;2023-06-26T11:19:12;4.55;;;1.50;;
76039;SDS011;64736;50.462;4.850;2023-06-26T11:21:39;4.40;;;1.60;;
76039;SDS011;64736;50.462;4.850;2023-06-26T11:24:08;5.45;;;1.83;;
76039;SDS011;64736;50.462;4.850;2023-06-26T11:26:38;4.40;;;1.63;;
76039;SDS011;64736;50.462;4.850;2023-06-26T11:29:04;4.38;;;1.70;;
76039;SDS011;64736;50.462;4.850;2023-06-26T11:31:31;4.57;;;1.60;;
76039;SDS011;64736;50.462;4.850;2023-06-26T11:34:02;4.68;;;1.70;;
76039;SDS011;64736;50.462;4.850;2023-06-26T11:36:29;4.25;;;1.88;;
76039;SDS011;64736;50.462;4.850;2023-06-26T11:38:57;3.03;;;1.20;;
76039;SDS011;64736;50.462;4.850;2023-06-26T11:41:25;7.13;;;2.28;;
76039;SDS011;64736;50.462;4.850;2023-06-26T11:46:19;4.22;;;1.38;;
76039;SDS011;64736;50.462;4.850;2023-06-26T11:48:46;5.35;;;1.75;;
76039;SDS011;64736;50.462;4.850;2023-06-26T11:51:12;3.10;;;1.48;;
76039;SDS011;64736;50.462;4.850;2023-06-26T11:53:40;3.90;;;1.42;;
76039;SDS011;64736;50.462;4.850;2023-06-26T11:56:08;3.97;;;1.65;;
76039;SDS011;64736;50.462;4.850;2023-06-26T12:01:42;4.10;;;1.52;;
76039;SDS011;64736;50.462;4.850;2023-06-26T12:04:12;4.72;;;1.58;;
76039;SDS011;64736;50.462;4.850;2023-06-26T12:06:47;4.72;;;1.60;;
76039;SDS011;64736;50.462;4.850;2023-06-26T12:09:16;5.30;;;1.80;;
76039;SDS011;64736;50.462;4.850;2023-06-26T12:11:44;5.00;;;1.63;;
76039;SDS011;64736;50.462;4.850;2023-06-26T12:14:13;5.00;;;1.67;;
76039;SDS011;64736;50.462;4.850;2023-06-26T12:16:40;5.10;;;1.55;;
76039;SDS011;64736;50.462;4.850;2023-06-26T12:19:06;4.10;;;1.55;;
76039;SDS011;64736;50.462;4.850;2023-06-26T12:24:00;4.32;;;1.50;;
76039;SDS011;64736;50.462;4.850;2023-06-26T12:26:26;6.20;;;1.80;;
76039;SDS011;64736;50.462;4.850;2023-06-26T12:29:01;4.43;;;1.67;;
76039;SDS011;64736;50.462;4.850;2023-06-26T12:31:28;4.03;;;1.63;;
76039;SDS011;64736;50.462;4.850;2023-06-26T12:33:54;4.82;;;1.48;;
76039;SDS011;64736;50.462;4.850;2023-06-26T12:36:20;4.20;;;1.73;;
76039;SDS011;64736;50.462;4.850;2023-06-26T12:38:45;5.13;;;1.80;;
76039;SDS011;64736;50.462;4.850;2023-06-26T12:41:12;3.85;;;1.67;;
76039;SDS011;64736;50.462;4.850;2023-06-26T12:43:41;4.95;;;1.65;;
76039;SDS011;64736;50.462;4.850;2023-06-26T12:46:08;5.45;;;1.60;;
76039;SDS011;64736;50.462;4.850;2023-06-26T12:48:41;3.97;;;1.30;;
76039;SDS011;64736;50.462;4.850;2023-06-26T12:51:14;4.97;;;1.80;;
76039;SDS011;64736;50.462;4.850;2023-06-26T12:53:43;5.60;;;1.60;;
76039;SDS011;64736;50.462;4.850;2023-06-26T12:56:09;3.45;;;1.27;;
76039;SDS011;64736;50.462;4.850;2023-06-26T12:58:36;5.03;;;2.22;;
76039;SDS011;64736;50.462;4.850;2023-06-26T13:01:06;4.93;;;1.48;;
76039;SDS011;64736;50.462;4.850;2023-06-26T13:03:39;5.32;;;1.40;;
76039;SDS011;64736;50.462;4.850;2023-06-26T13:06:05;4.15;;;1.17;;
76039;SDS011;64736;50.462;4.850;2023-06-26T13:08:31;4.78;;;1.52;;
76039;SDS011;64736;50.462;4.850;2023-06-26T13:10:57;4.60;;;1.52;;
76039;SDS011;64736;50.462;4.850;2023-06-26T13:13:22;3.90;;;1.55;;
76039;SDS011;64736;50.462;4.850;2023-06-26T13:15:48;4.35;;;1.75;;
76039;SDS011;64736;50.462;4.850;2023-06-26T13:18:15;4.68;;;1.85;;
76039;SDS011;64736;50.462;4.850;2023-06-26T13:20:40;3.28;;;1.45;;
76039;SDS011;64736;50.462;4.850;2023-06-26T13:23:06;6.25;;;1.88;;
76039;SDS011;64736;50.462;4.850;2023-06-26T13:25:32;4.95;;;1.40;;
76039;SDS011;64736;50.462;4.850;2023-06-26T13:27:58;5.18;;;1.92;;
76039;SDS011;64736;50.462;4.850;2023-06-26T13:30:24;5.05;;;1.70;;
76039;SDS011;64736;50.462;4.850;2023-06-26T13:32:50;6.85;;;1.83;;
76039;SDS011;64736;50.462;4.850;2023-06-26T13:35:15;4.53;;;1.50;;
76039;SDS011;64736;50.462;4.850;2023-06-26T13:37:41;5.38;;;1.48;;
76039;SDS011;64736;50.462;4.850;2023-06-26T13:40:09;5.93;;;1.55;;
76039;SDS011;64736;50.462;4.850;2023-06-26T13:42:35;4.93;;;1.60;;
76039;SDS011;64736;50.462;4.850;2023-06-26T13:45:02;4.97;;;3.50;;
76039;SDS011;64736;50.462;4.850;2023-06-26T13:47:28;4.72;;;1.50;;
76039;SDS011;64736;50.462;4.850;2023-06-26T13:49:54;4.28;;;1.63;;
76039;SDS011;64736;50.462;4.850;2023-06-26T13:52:20;3.70;;;1.33;;
76039;SDS011;64736;50.462;4.850;2023-06-26T13:54:46;4.28;;;1.95;;
76039;SDS011;64736;50.462;4.850;2023-06-26T13:57:11;5.07;;;1.55;;
76039;SDS011;64736;50.462;4.850;2023-06-26T13:59:38;4.00;;;1.77;;
76039;SDS011;64736;50.462;4.850;2023-06-26T14:02:07;5.38;;;1.80;;
76039;SDS011;64736;50.462;4.850;2023-06-26T14:04:33;3.90;;;1.50;;
76039;SDS011;64736;50.462;4.850;2023-06-26T14:06:59;4.03;;;1.50;;
76039;SDS011;64736;50.462;4.850;2023-06-26T14:09:25;6.90;;;1.73;;
76039;SDS011;64736;50.462;4.850;2023-06-26T14:11:50;6.53;;;1.80;;
76039;SDS011;64736;50.462;4.850;2023-06-26T14:14:16;5.10;;;1.60;;
76039;SDS011;64736;50.462;4.850;2023-06-26T14:16:42;16.73;;;2.28;;
76039;SDS011;64736;50.462;4.850;2023-06-26T14:19:08;4.35;;;1.67;;
76039;SDS011;64736;50.462;4.850;2023-06-26T14:21:40;4.05;;;1.60;;
76039;SDS011;64736;50.462;4.850;2023-06-26T14:24:06;3.70;;;1.40;;
76039;SDS011;64736;50.462;4.850;2023-06-26T14:26:32;6.80;;;1.85;;
76039;SDS011;64736;50.462;4.850;2023-06-26T14:28:59;4.40;;;1.73;;
76039;SDS011;64736;50.462;4.850;2023-06-26T14:31:25;3.83;;;1.40;;
76039;SDS011;64736;50.462;4.850;2023-06-26T14:33:51;5.18;;;1.80;;
76039;SDS011;64736;50.462;4.850;2023-06-26T14:36:17;4.57;;;1.40;;
76039;SDS011;64736;50.462;4.850;2023-06-26T14:38:44;5.63;;;2.05;;
76039;SDS011;64736;50.462;4.850;2023-06-26T14:41:10;4.85;;;1.70;;
76039;SDS011;64736;50.462;4.850;2023-06-26T14:43:36;5.38;;;2.05;;
76039;SDS011;64736;50.462;4.850;2023-06-26T14:46:02;6.22;;;2.15;;
76039;SDS011;64736;50.462;4.850;2023-06-26T14:48:28;4.95;;;2.22;;
76039;SDS011;64736;50.462;4.850;2023-06-26T14:50:54;6.20;;;1.55;;
76039;SDS011;64736;50.462;4.850;2023-06-26T14:53:19;4.57;;;1.38;;
76039;SDS011;64736;50.462;4.850;2023-06-26T14:55:45;4.07;;;1.40;;
76039;SDS011;64736;50.462;4.850;2023-06-26T14:58:11;6.28;;;1.50;;
76039;SDS011;64736;50.462;4.850;2023-06-26T15:00:37;8.30;;;5.90;;
76039;SDS011;64736;50.462;4.850;2023-06-26T15:03:02;5.25;;;1.45;;
76039;SDS011;64736;50.462;4.850;2023-06-26T15:05:28;4.25;;;1.15;;
76039;SDS011;64736;50.462;4.850;2023-06-26T15:07:54;6.20;;;1.63;;
76039;SDS011;64736;50.462;4.850;2023-06-26T15:10:19;4.82;;;1.70;;
76039;SDS011;64736;50.462;4.850;2023-06-26T15:12:46;4.10;;;1.40;;
76039;SDS011;64736;50.462;4.850;2023-06-26T15:15:12;4.75;;;1.50;;
76039;SDS011;64736;50.462;4.850;2023-06-26T15:17:38;4.80;;;1.40;;